GLO2004 SBGL-SBEG
Flight info
| Callsign | GLO2004 |
|---|---|
| Flight time | 3h 48m |
| Altitude | 38000 |
| Route | EDNAM UM409 ESMAR DCT IRUMO |
| Aircraft | B738/M-SDFGIKLORWXY/LB1 |
Departure
| Time | 2026-04-28 22:14 |
|---|---|
| Airport | Rio Galeão – Tom Jobim International Airport (SBGL) |
Arrival
| Time | 2026-04-29 02:02 |
|---|---|
| Airport | Eduardo Gomes International Airport (SBEG) |
| Time | Latitude | Longitude | Altitude | Speed | Heading |
|---|---|---|---|---|---|
| 2026-04-28 21:58 | -22.80987 | -43.25299 | 23 ft | 0 kts | 110° |
| 2026-04-28 22:08 | -22.80985 | -43.25307 | 21 ft | 2 kts | 110° |
| 2026-04-28 22:08 | -22.80979 | -43.25323 | 22 ft | 2 kts | 110° |
| 2026-04-28 22:09 | -22.80973 | -43.25340 | 21 ft | 2 kts | 111° |
| 2026-04-28 22:09 | -22.80966 | -43.25356 | 22 ft | 2 kts | 140° |
| 2026-04-28 22:09 | -22.80957 | -43.25362 | 23 ft | 0 kts | 189° |
| 2026-04-28 22:11 | -22.80958 | -43.25362 | 23 ft | 0 kts | 182° |
| 2026-04-28 22:11 | -22.80972 | -43.25390 | 22 ft | 9 kts | 270° |
| 2026-04-28 22:11 | -22.80925 | -43.25479 | 27 ft | 17 kts | 296° |
| 2026-04-28 22:12 | -22.80853 | -43.25630 | 22 ft | 29 kts | 300° |
| 2026-04-28 22:12 | -22.80687 | -43.25621 | 26 ft | 24 kts | 35° |
| 2026-04-28 22:12 | -22.80568 | -43.25537 | 27 ft | 19 kts | 19° |
| 2026-04-28 22:12 | -22.80446 | -43.25591 | 29 ft | 21 kts | 327° |
| 2026-04-28 22:13 | -22.80309 | -43.25569 | 28 ft | 23 kts | 42° |
| 2026-04-28 22:13 | -22.80192 | -43.25459 | 26 ft | 21 kts | 44° |
| 2026-04-28 22:13 | -22.80120 | -43.25247 | 28 ft | 58 kts | 75° |
| 2026-04-28 22:13 | -22.79948 | -43.24586 | 31 ft | 122 kts | 74° |
| 2026-04-28 22:14 | -22.79674 | -43.23500 | 61 ft | 172 kts | 77° |
| 2026-04-28 22:14 | -22.79355 | -43.22210 | 687 ft | 177 kts | 77° |
| 2026-04-28 22:14 | -22.79066 | -43.20952 | 1579 ft | 168 kts | 78° |
| 2026-04-28 22:14 | -22.78788 | -43.19690 | 2214 ft | 183 kts | 77° |
| 2026-04-28 22:15 | -22.78472 | -43.18232 | 2452 ft | 212 kts | 77° |
| 2026-04-28 22:15 | -22.78116 | -43.16584 | 2658 ft | 237 kts | 77° |
| 2026-04-28 22:15 | -22.77725 | -43.14756 | 3017 ft | 258 kts | 76° |
| 2026-04-28 22:15 | -22.77317 | -43.12843 | 3771 ft | 262 kts | 76° |
| 2026-04-28 22:16 | -22.76910 | -43.10927 | 4577 ft | 267 kts | 76° |
| 2026-04-28 22:16 | -22.76492 | -43.08953 | 5353 ft | 271 kts | 76° |
| 2026-04-28 22:16 | -22.76067 | -43.06943 | 6130 ft | 276 kts | 76° |
| 2026-04-28 22:16 | -22.75634 | -43.04901 | 6862 ft | 280 kts | 76° |
| 2026-04-28 22:17 | -22.75194 | -43.02832 | 7608 ft | 283 kts | 75° |
| 2026-04-28 22:17 | -22.74360 | -43.00917 | 8311 ft | 285 kts | 48° |
| 2026-04-28 22:17 | -22.72782 | -42.99648 | 9051 ft | 285 kts | 21° |
| 2026-04-28 22:17 | -22.70839 | -42.99292 | 9782 ft | 287 kts | 354° |
| 2026-04-28 22:18 | -22.68912 | -42.99878 | 10403 ft | 294 kts | 334° |
| 2026-04-28 22:18 | -22.67059 | -43.00998 | 10582 ft | 317 kts | 330° |
| 2026-04-28 22:18 | -22.64922 | -43.01833 | 10772 ft | 338 kts | 346° |
| 2026-04-28 22:18 | -22.62626 | -43.02541 | 11228 ft | 346 kts | 341° |
| 2026-04-28 22:19 | -22.60338 | -43.03414 | 11870 ft | 350 kts | 339° |
| 2026-04-28 22:19 | -22.58048 | -43.04333 | 12532 ft | 353 kts | 339° |
| 2026-04-28 22:19 | -22.55731 | -43.05260 | 13158 ft | 357 kts | 339° |
| 2026-04-28 22:19 | -22.53384 | -43.06190 | 13769 ft | 361 kts | 339° |
| 2026-04-28 22:20 | -22.51018 | -43.07122 | 14363 ft | 364 kts | 339° |
| 2026-04-28 22:20 | -22.48636 | -43.08058 | 15045 ft | 363 kts | 339° |
| 2026-04-28 22:20 | -22.46264 | -43.08989 | 15677 ft | 364 kts | 339° |
| 2026-04-28 22:20 | -22.43873 | -43.09927 | 16246 ft | 366 kts | 339° |
| 2026-04-28 22:21 | -22.41469 | -43.10871 | 16797 ft | 368 kts | 339° |
| 2026-04-28 22:21 | -22.39059 | -43.11817 | 17361 ft | 370 kts | 339° |
| 2026-04-28 22:21 | -22.36663 | -43.12757 | 17907 ft | 372 kts | 339° |
| 2026-04-28 22:21 | -22.34192 | -43.13726 | 18404 ft | 375 kts | 339° |
| 2026-04-28 22:22 | -22.31763 | -43.14677 | 18837 ft | 377 kts | 339° |
| 2026-04-28 22:22 | -22.29297 | -43.15644 | 19287 ft | 378 kts | 339° |
| 2026-04-28 22:22 | -22.26808 | -43.16618 | 19725 ft | 380 kts | 339° |
| 2026-04-28 22:22 | -22.24317 | -43.17594 | 20164 ft | 382 kts | 339° |
| 2026-04-28 22:23 | -22.21804 | -43.18578 | 20587 ft | 385 kts | 339° |
| 2026-04-28 22:23 | -22.19274 | -43.19568 | 21012 ft | 387 kts | 338° |
| 2026-04-28 22:23 | -22.16730 | -43.20563 | 21443 ft | 389 kts | 338° |
| 2026-04-28 22:23 | -22.14240 | -43.21709 | 21852 ft | 390 kts | 330° |
| 2026-04-28 22:24 | -22.11869 | -43.23155 | 22257 ft | 392 kts | 328° |
| 2026-04-28 22:24 | -22.09522 | -43.24677 | 22672 ft | 394 kts | 327° |
| 2026-04-28 22:24 | -22.07174 | -43.26211 | 23079 ft | 396 kts | 328° |
| 2026-04-28 22:24 | -22.04834 | -43.27725 | 23455 ft | 398 kts | 328° |
| 2026-04-28 22:25 | -22.02439 | -43.29253 | 23818 ft | 400 kts | 328° |
| 2026-04-28 22:25 | -22.00026 | -43.30776 | 24123 ft | 403 kts | 328° |
| 2026-04-28 22:25 | -21.97597 | -43.32302 | 24438 ft | 405 kts | 328° |
| 2026-04-28 22:25 | -21.95161 | -43.33826 | 24758 ft | 406 kts | 328° |
| 2026-04-28 22:26 | -21.92713 | -43.35356 | 25101 ft | 407 kts | 328° |
| 2026-04-28 22:26 | -21.90263 | -43.36887 | 25414 ft | 408 kts | 328° |
| 2026-04-28 22:26 | -21.87798 | -43.38428 | 25712 ft | 410 kts | 328° |
| 2026-04-28 22:26 | -21.85329 | -43.39970 | 26038 ft | 411 kts | 328° |
| 2026-04-28 22:27 | -21.82849 | -43.41519 | 26353 ft | 413 kts | 328° |
| 2026-04-28 22:27 | -21.80363 | -43.43070 | 26629 ft | 414 kts | 328° |
| 2026-04-28 22:27 | -21.77864 | -43.44629 | 26915 ft | 416 kts | 328° |
| 2026-04-28 22:27 | -21.75358 | -43.46191 | 27213 ft | 417 kts | 328° |
| 2026-04-28 22:28 | -21.72838 | -43.47762 | 27505 ft | 419 kts | 328° |
| 2026-04-28 22:28 | -21.70309 | -43.49337 | 27805 ft | 420 kts | 328° |
| 2026-04-28 22:28 | -21.67771 | -43.50919 | 28058 ft | 422 kts | 328° |
| 2026-04-28 22:28 | -21.65222 | -43.52507 | 28313 ft | 424 kts | 328° |
| 2026-04-28 22:29 | -21.62662 | -43.54101 | 28563 ft | 426 kts | 328° |
| 2026-04-28 22:29 | -21.60097 | -43.55697 | 28824 ft | 427 kts | 328° |
| 2026-04-28 22:29 | -21.57551 | -43.57280 | 29067 ft | 429 kts | 328° |
| 2026-04-28 22:29 | -21.54927 | -43.58911 | 29305 ft | 430 kts | 328° |
| 2026-04-28 22:30 | -21.52332 | -43.60521 | 29538 ft | 432 kts | 328° |
| 2026-04-28 22:30 | -21.49755 | -43.62119 | 29753 ft | 434 kts | 328° |
| 2026-04-28 22:30 | -21.47135 | -43.63744 | 29973 ft | 435 kts | 328° |
| 2026-04-28 22:30 | -21.44505 | -43.65375 | 30188 ft | 437 kts | 328° |
| 2026-04-28 22:31 | -21.41866 | -43.67010 | 30378 ft | 438 kts | 328° |
| 2026-04-28 22:31 | -21.39223 | -43.68648 | 30614 ft | 438 kts | 328° |
| 2026-04-28 22:31 | -21.36587 | -43.70280 | 30878 ft | 438 kts | 328° |
| 2026-04-28 22:31 | -21.33949 | -43.71914 | 31135 ft | 437 kts | 328° |
| 2026-04-28 22:32 | -21.31308 | -43.73548 | 31361 ft | 438 kts | 328° |
| 2026-04-28 22:32 | -21.28669 | -43.75181 | 31586 ft | 439 kts | 328° |
| 2026-04-28 22:32 | -21.26031 | -43.76816 | 31846 ft | 438 kts | 328° |
| 2026-04-28 22:32 | -21.23413 | -43.78493 | 32100 ft | 438 kts | 327° |
| 2026-04-28 22:33 | -21.20809 | -43.80199 | 32333 ft | 438 kts | 326° |
| 2026-04-28 22:33 | -21.18209 | -43.81914 | 32591 ft | 438 kts | 326° |
| 2026-04-28 22:33 | -21.15616 | -43.83624 | 32840 ft | 438 kts | 326° |
| 2026-04-28 22:33 | -21.13014 | -43.85334 | 33088 ft | 438 kts | 326° |
| 2026-04-28 22:34 | -21.10414 | -43.87038 | 33323 ft | 439 kts | 326° |
| 2026-04-28 22:34 | -21.07806 | -43.88743 | 33572 ft | 439 kts | 326° |
| 2026-04-28 22:34 | -21.05202 | -43.90443 | 33817 ft | 439 kts | 326° |
| 2026-04-28 22:34 | -21.02612 | -43.92131 | 34072 ft | 438 kts | 326° |
| 2026-04-28 22:35 | -21.00008 | -43.93829 | 34285 ft | 438 kts | 326° |
| 2026-04-28 22:35 | -20.97403 | -43.95526 | 34487 ft | 438 kts | 326° |
| 2026-04-28 22:35 | -20.94799 | -43.97222 | 34697 ft | 438 kts | 326° |
| 2026-04-28 22:35 | -20.92191 | -43.98920 | 34912 ft | 438 kts | 326° |
| 2026-04-28 22:36 | -20.89592 | -44.00611 | 35131 ft | 437 kts | 326° |
| 2026-04-28 22:36 | -20.86996 | -44.02300 | 35340 ft | 437 kts | 326° |
| 2026-04-28 22:36 | -20.84400 | -44.03989 | 35532 ft | 437 kts | 326° |
| 2026-04-28 22:36 | -20.81800 | -44.05679 | 35726 ft | 437 kts | 326° |
| 2026-04-28 22:37 | -20.79207 | -44.07365 | 35916 ft | 436 kts | 326° |
| 2026-04-28 22:37 | -20.76613 | -44.09049 | 36109 ft | 436 kts | 326° |
| 2026-04-28 22:37 | -20.74052 | -44.10700 | 36296 ft | 436 kts | 326° |
| 2026-04-28 22:37 | -20.71449 | -44.12374 | 36476 ft | 436 kts | 326° |
| 2026-04-28 22:38 | -20.68863 | -44.14057 | 36667 ft | 435 kts | 326° |
| 2026-04-28 22:38 | -20.66283 | -44.15742 | 36868 ft | 434 kts | 326° |
| 2026-04-28 22:38 | -20.63705 | -44.17424 | 37028 ft | 435 kts | 326° |
| 2026-04-28 22:38 | -20.61118 | -44.19095 | 37174 ft | 435 kts | 326° |
| 2026-04-28 22:39 | -20.58517 | -44.20758 | 37341 ft | 435 kts | 326° |
| 2026-04-28 22:39 | -20.55922 | -44.22414 | 37496 ft | 435 kts | 326° |
| 2026-04-28 22:39 | -20.53327 | -44.24070 | 37659 ft | 434 kts | 326° |
| 2026-04-28 22:39 | -20.50737 | -44.25726 | 37827 ft | 434 kts | 326° |
| 2026-04-28 22:40 | -20.48988 | -44.26844 | 37926 ft | 434 kts | 326° |
| 2026-04-28 22:40 | -20.46394 | -44.28504 | 38051 ft | 434 kts | 326° |
| 2026-04-28 22:40 | -20.43801 | -44.30162 | 38091 ft | 436 kts | 326° |
| 2026-04-28 22:41 | -20.38637 | -44.33491 | 38106 ft | 436 kts | 325° |
| 2026-04-28 22:41 | -20.33467 | -44.36839 | 38090 ft | 434 kts | 326° |
| 2026-04-28 22:42 | -20.28304 | -44.40177 | 38083 ft | 433 kts | 326° |
| 2026-04-28 22:42 | -20.23152 | -44.43503 | 38084 ft | 432 kts | 325° |
| 2026-04-28 22:43 | -20.18009 | -44.46821 | 38068 ft | 432 kts | 326° |
| 2026-04-28 22:43 | -20.12904 | -44.50110 | 38069 ft | 431 kts | 326° |
| 2026-04-28 22:44 | -20.07754 | -44.53405 | 38076 ft | 432 kts | 326° |
| 2026-04-28 22:44 | -20.02597 | -44.56696 | 38063 ft | 433 kts | 326° |
| 2026-04-28 22:45 | -19.97427 | -44.59995 | 38065 ft | 433 kts | 326° |
| 2026-04-28 22:45 | -19.92251 | -44.63297 | 38067 ft | 434 kts | 326° |
| 2026-04-28 22:46 | -19.87095 | -44.66584 | 38071 ft | 435 kts | 326° |
| 2026-04-28 22:46 | -19.81866 | -44.69916 | 38056 ft | 436 kts | 326° |
| 2026-04-28 22:47 | -19.76661 | -44.73229 | 38074 ft | 437 kts | 326° |
| 2026-04-28 22:47 | -19.71467 | -44.76533 | 38060 ft | 438 kts | 326° |
| 2026-04-28 22:48 | -19.66238 | -44.79857 | 38048 ft | 439 kts | 326° |
| 2026-04-28 22:48 | -19.60996 | -44.83187 | 38056 ft | 439 kts | 326° |
| 2026-04-28 22:49 | -19.55748 | -44.86519 | 38046 ft | 439 kts | 326° |
| 2026-04-28 22:49 | -19.50504 | -44.89844 | 38057 ft | 439 kts | 326° |
| 2026-04-28 22:50 | -19.45257 | -44.93174 | 38045 ft | 439 kts | 326° |
| 2026-04-28 22:50 | -19.40014 | -44.96499 | 38046 ft | 439 kts | 326° |
| 2026-04-28 22:51 | -19.34809 | -44.99798 | 38047 ft | 438 kts | 326° |
| 2026-04-28 22:51 | -19.29577 | -45.03112 | 38043 ft | 438 kts | 326° |
| 2026-04-28 22:52 | -19.24343 | -45.06425 | 38038 ft | 438 kts | 326° |
| 2026-04-28 22:52 | -19.19117 | -45.09730 | 38040 ft | 438 kts | 327° |
| 2026-04-28 22:53 | -19.13880 | -45.13040 | 38038 ft | 438 kts | 327° |
| 2026-04-28 22:53 | -19.08655 | -45.16340 | 38037 ft | 437 kts | 327° |
| 2026-04-28 22:54 | -19.03432 | -45.19636 | 38033 ft | 437 kts | 327° |
| 2026-04-28 22:54 | -18.98239 | -45.22910 | 38036 ft | 437 kts | 327° |
| 2026-04-28 22:55 | -18.93014 | -45.26203 | 38032 ft | 438 kts | 327° |
| 2026-04-28 22:55 | -18.87779 | -45.29499 | 38033 ft | 438 kts | 327° |
| 2026-04-28 22:56 | -18.82546 | -45.32792 | 38032 ft | 438 kts | 327° |
| 2026-04-28 22:56 | -18.77301 | -45.36090 | 38034 ft | 439 kts | 327° |
| 2026-04-28 22:57 | -18.72055 | -45.39385 | 38034 ft | 439 kts | 327° |
| 2026-04-28 22:57 | -18.66803 | -45.42682 | 38032 ft | 440 kts | 327° |
| 2026-04-28 22:58 | -18.61539 | -45.45985 | 38030 ft | 440 kts | 327° |
| 2026-04-28 22:58 | -18.56276 | -45.49285 | 38033 ft | 440 kts | 327° |
| 2026-04-28 22:59 | -18.51002 | -45.52590 | 38032 ft | 441 kts | 327° |
| 2026-04-28 22:59 | -18.45763 | -45.55870 | 38043 ft | 441 kts | 327° |
| 2026-04-28 23:00 | -18.40654 | -45.59441 | 38049 ft | 440 kts | 321° |
| 2026-04-28 23:00 | -18.35749 | -45.63312 | 38032 ft | 440 kts | 321° |
| 2026-04-28 23:01 | -18.30858 | -45.67183 | 38041 ft | 441 kts | 321° |
| 2026-04-28 23:01 | -18.25935 | -45.71042 | 38043 ft | 441 kts | 321° |
| 2026-04-28 23:02 | -18.21000 | -45.74888 | 38046 ft | 441 kts | 321° |
| 2026-04-28 23:02 | -18.16068 | -45.78728 | 38044 ft | 441 kts | 322° |
| 2026-04-28 23:03 | -18.11136 | -45.82565 | 38045 ft | 441 kts | 322° |
| 2026-04-28 23:03 | -18.06199 | -45.86405 | 38052 ft | 441 kts | 322° |
| 2026-04-28 23:04 | -18.01268 | -45.90238 | 38044 ft | 441 kts | 322° |
| 2026-04-28 23:04 | -17.93906 | -45.95954 | 38042 ft | 441 kts | 322° |
| 2026-04-28 23:05 | -17.88946 | -45.99804 | 38042 ft | 440 kts | 322° |
| 2026-04-28 23:05 | -17.84049 | -46.03601 | 38037 ft | 440 kts | 322° |
| 2026-04-28 23:06 | -17.79126 | -46.07417 | 38038 ft | 440 kts | 322° |
| 2026-04-28 23:06 | -17.74199 | -46.11237 | 38032 ft | 440 kts | 322° |
| 2026-04-28 23:07 | -17.69278 | -46.15050 | 38028 ft | 440 kts | 322° |
| 2026-04-28 23:07 | -17.64352 | -46.18865 | 38024 ft | 440 kts | 322° |
| 2026-04-28 23:08 | -17.59431 | -46.22673 | 38020 ft | 440 kts | 322° |
| 2026-04-28 23:08 | -17.54502 | -46.26483 | 38019 ft | 440 kts | 322° |
| 2026-04-28 23:09 | -17.49583 | -46.30285 | 38015 ft | 440 kts | 322° |
| 2026-04-28 23:09 | -17.44676 | -46.34074 | 38012 ft | 440 kts | 322° |
| 2026-04-28 23:10 | -17.39737 | -46.37885 | 38012 ft | 441 kts | 322° |
| 2026-04-28 23:10 | -17.34787 | -46.41702 | 38011 ft | 441 kts | 322° |
| 2026-04-28 23:11 | -17.29842 | -46.45513 | 38010 ft | 442 kts | 322° |
| 2026-04-28 23:11 | -17.24891 | -46.49327 | 38007 ft | 442 kts | 322° |
| 2026-04-28 23:12 | -17.19933 | -46.53143 | 38008 ft | 443 kts | 322° |
| 2026-04-28 23:12 | -17.14962 | -46.56967 | 38009 ft | 443 kts | 322° |
| 2026-04-28 23:13 | -17.10130 | -46.60909 | 38010 ft | 443 kts | 319° |
| 2026-04-28 23:13 | -17.05460 | -46.65107 | 38014 ft | 443 kts | 317° |
| 2026-04-28 23:14 | -17.00796 | -46.69328 | 38016 ft | 443 kts | 318° |
| 2026-04-28 23:14 | -16.96117 | -46.73518 | 38016 ft | 443 kts | 318° |
| 2026-04-28 23:15 | -16.91420 | -46.77698 | 38018 ft | 443 kts | 318° |
| 2026-04-28 23:15 | -16.86729 | -46.81864 | 38022 ft | 443 kts | 318° |
| 2026-04-28 23:16 | -16.82037 | -46.86029 | 38023 ft | 442 kts | 318° |
| 2026-04-28 23:16 | -16.77351 | -46.90188 | 38026 ft | 442 kts | 318° |
| 2026-04-28 23:17 | -16.72675 | -46.94334 | 38032 ft | 441 kts | 318° |
| 2026-04-28 23:17 | -16.68003 | -46.98476 | 38037 ft | 441 kts | 318° |
| 2026-04-28 23:18 | -16.63327 | -47.02617 | 38032 ft | 440 kts | 318° |
| 2026-04-28 23:18 | -16.58686 | -47.06724 | 38033 ft | 440 kts | 318° |
| 2026-04-28 23:19 | -16.54018 | -47.10854 | 38039 ft | 440 kts | 318° |
| 2026-04-28 23:19 | -16.49352 | -47.14979 | 38042 ft | 439 kts | 318° |
| 2026-04-28 23:20 | -16.44691 | -47.19098 | 38041 ft | 439 kts | 318° |
| 2026-04-28 23:20 | -16.40022 | -47.23219 | 38041 ft | 440 kts | 318° |
| 2026-04-28 23:21 | -16.35550 | -47.27556 | 38050 ft | 439 kts | 314° |
| 2026-04-28 23:21 | -16.31270 | -47.32101 | 38053 ft | 439 kts | 313° |
| 2026-04-28 23:22 | -16.27714 | -47.35883 | 38045 ft | 440 kts | 313° |
| 2026-04-28 23:22 | -16.22700 | -47.41160 | 38049 ft | 441 kts | 314° |
| 2026-04-28 23:23 | -16.18375 | -47.45684 | 38048 ft | 441 kts | 314° |
| 2026-04-28 23:23 | -16.14038 | -47.50215 | 38051 ft | 442 kts | 314° |
| 2026-04-28 23:24 | -16.09696 | -47.54751 | 38050 ft | 442 kts | 314° |
| 2026-04-28 23:24 | -16.05348 | -47.59289 | 38054 ft | 443 kts | 314° |
| 2026-04-28 23:25 | -16.00997 | -47.63828 | 38065 ft | 443 kts | 314° |
| 2026-04-28 23:25 | -15.96677 | -47.68332 | 38085 ft | 443 kts | 314° |
| 2026-04-28 23:26 | -15.92328 | -47.72864 | 38101 ft | 443 kts | 314° |
| 2026-04-28 23:26 | -15.87980 | -47.77392 | 38117 ft | 443 kts | 314° |
| 2026-04-28 23:27 | -15.83627 | -47.81923 | 38126 ft | 442 kts | 314° |
| 2026-04-28 23:27 | -15.79283 | -47.86454 | 38127 ft | 442 kts | 314° |
| 2026-04-28 23:28 | -15.74950 | -47.90976 | 38120 ft | 442 kts | 314° |
| 2026-04-28 23:28 | -15.71346 | -47.94735 | 38108 ft | 441 kts | 314° |
| 2026-04-28 23:29 | -15.67019 | -47.99245 | 38095 ft | 441 kts | 314° |
| 2026-04-28 23:29 | -15.62689 | -48.03754 | 38073 ft | 441 kts | 314° |
| 2026-04-28 23:30 | -15.58360 | -48.08260 | 38052 ft | 440 kts | 314° |
| 2026-04-28 23:30 | -15.54036 | -48.12758 | 38042 ft | 440 kts | 314° |
| 2026-04-28 23:31 | -15.49709 | -48.17257 | 38033 ft | 441 kts | 314° |
| 2026-04-28 23:31 | -15.45285 | -48.21670 | 38032 ft | 441 kts | 316° |
| 2026-04-28 23:32 | -15.40735 | -48.25953 | 38021 ft | 442 kts | 316° |
| 2026-04-28 23:32 | -15.36188 | -48.30242 | 38021 ft | 442 kts | 316° |
| 2026-04-28 23:33 | -15.31686 | -48.34523 | 38014 ft | 442 kts | 316° |
| 2026-04-28 23:33 | -15.27149 | -48.38848 | 38009 ft | 443 kts | 316° |
| 2026-04-28 23:34 | -15.22619 | -48.43166 | 38006 ft | 443 kts | 316° |
| 2026-04-28 23:34 | -15.18080 | -48.47488 | 38000 ft | 443 kts | 316° |
| 2026-04-28 23:35 | -15.13542 | -48.51806 | 37999 ft | 443 kts | 316° |
| 2026-04-28 23:35 | -15.09026 | -48.56100 | 37994 ft | 443 kts | 316° |
| 2026-04-28 23:36 | -15.04479 | -48.60423 | 38000 ft | 444 kts | 316° |
| 2026-04-28 23:36 | -14.99927 | -48.64732 | 37992 ft | 444 kts | 316° |
| 2026-04-28 23:37 | -14.95353 | -48.69017 | 37988 ft | 444 kts | 317° |
| 2026-04-28 23:37 | -14.90771 | -48.73303 | 37985 ft | 444 kts | 317° |
| 2026-04-28 23:38 | -14.86189 | -48.77591 | 37985 ft | 444 kts | 317° |
| 2026-04-28 23:38 | -14.81634 | -48.81855 | 37989 ft | 444 kts | 317° |
| 2026-04-28 23:39 | -14.77024 | -48.86170 | 37980 ft | 444 kts | 317° |
| 2026-04-28 23:39 | -14.72468 | -48.90431 | 37972 ft | 444 kts | 317° |
| 2026-04-28 23:40 | -14.67886 | -48.94714 | 37972 ft | 444 kts | 317° |
| 2026-04-28 23:40 | -14.63298 | -48.98999 | 37974 ft | 444 kts | 317° |
| 2026-04-28 23:41 | -14.58715 | -49.03278 | 37974 ft | 444 kts | 317° |
| 2026-04-28 23:41 | -14.54127 | -49.07558 | 37967 ft | 444 kts | 317° |
| 2026-04-28 23:42 | -14.49544 | -49.11832 | 37963 ft | 444 kts | 317° |
| 2026-04-28 23:42 | -14.44951 | -49.16112 | 37972 ft | 444 kts | 317° |
| 2026-04-28 23:43 | -14.40392 | -49.20358 | 37965 ft | 444 kts | 317° |
| 2026-04-28 23:43 | -14.35801 | -49.24632 | 37961 ft | 444 kts | 317° |
| 2026-04-28 23:44 | -14.31207 | -49.28907 | 37975 ft | 444 kts | 317° |
| 2026-04-28 23:44 | -14.26609 | -49.33181 | 37953 ft | 445 kts | 317° |
| 2026-04-28 23:45 | -14.22011 | -49.37455 | 37961 ft | 445 kts | 317° |
| 2026-04-28 23:45 | -14.17441 | -49.41699 | 37953 ft | 445 kts | 317° |
| 2026-04-28 23:46 | -14.12846 | -49.45965 | 37949 ft | 445 kts | 317° |
| 2026-04-28 23:46 | -14.08247 | -49.50233 | 37956 ft | 445 kts | 317° |
| 2026-04-28 23:47 | -14.03651 | -49.54494 | 37948 ft | 445 kts | 317° |
| 2026-04-28 23:47 | -13.99009 | -49.58711 | 37952 ft | 445 kts | 318° |
| 2026-04-28 23:48 | -13.94322 | -49.62872 | 37952 ft | 444 kts | 318° |
| 2026-04-28 23:48 | -13.89642 | -49.67029 | 37947 ft | 444 kts | 318° |
| 2026-04-28 23:49 | -13.84968 | -49.71192 | 37942 ft | 445 kts | 318° |
| 2026-04-28 23:49 | -13.80296 | -49.75358 | 37950 ft | 444 kts | 318° |
| 2026-04-28 23:50 | -13.75643 | -49.79505 | 37949 ft | 445 kts | 319° |
| 2026-04-28 23:50 | -13.70966 | -49.83671 | 37946 ft | 445 kts | 319° |
| 2026-04-28 23:51 | -13.66281 | -49.87842 | 37960 ft | 445 kts | 319° |
| 2026-04-28 23:51 | -13.61595 | -49.92011 | 37953 ft | 446 kts | 319° |
| 2026-04-28 23:52 | -13.56898 | -49.96188 | 37941 ft | 446 kts | 319° |
| 2026-04-28 23:52 | -13.52200 | -50.00363 | 37950 ft | 447 kts | 319° |
| 2026-04-28 23:53 | -13.47496 | -50.04542 | 37959 ft | 447 kts | 319° |
| 2026-04-28 23:53 | -13.42783 | -50.08726 | 37945 ft | 448 kts | 319° |
| 2026-04-28 23:54 | -13.38073 | -50.12906 | 37946 ft | 448 kts | 319° |
| 2026-04-28 23:54 | -13.33394 | -50.17056 | 37950 ft | 447 kts | 319° |
| 2026-04-28 23:55 | -13.28686 | -50.21229 | 37956 ft | 447 kts | 319° |
| 2026-04-28 23:55 | -13.23978 | -50.25402 | 37946 ft | 446 kts | 319° |
| 2026-04-28 23:56 | -13.19277 | -50.29564 | 37943 ft | 446 kts | 319° |
| 2026-04-28 23:56 | -13.14585 | -50.33716 | 37947 ft | 444 kts | 319° |
| 2026-04-28 23:57 | -13.09910 | -50.37853 | 37938 ft | 443 kts | 319° |
| 2026-04-28 23:57 | -13.05240 | -50.41984 | 37938 ft | 442 kts | 319° |
| 2026-04-28 23:58 | -13.00579 | -50.46105 | 37948 ft | 442 kts | 319° |
| 2026-04-28 23:58 | -12.95930 | -50.50214 | 37945 ft | 441 kts | 319° |
| 2026-04-28 23:59 | -12.91311 | -50.54295 | 37944 ft | 441 kts | 319° |
| 2026-04-28 23:59 | -12.86667 | -50.58395 | 37945 ft | 441 kts | 319° |
| 2026-04-29 00:00 | -12.82016 | -50.62499 | 37948 ft | 441 kts | 319° |
| 2026-04-29 00:00 | -12.77361 | -50.66605 | 37935 ft | 442 kts | 319° |
| 2026-04-29 00:01 | -12.72703 | -50.70712 | 37947 ft | 442 kts | 320° |
| 2026-04-29 00:01 | -12.68027 | -50.74832 | 37950 ft | 444 kts | 320° |
| 2026-04-29 00:02 | -12.63343 | -50.78957 | 37936 ft | 445 kts | 320° |
| 2026-04-29 00:02 | -12.58665 | -50.83075 | 37947 ft | 446 kts | 320° |
| 2026-04-29 00:03 | -12.53953 | -50.87220 | 37948 ft | 447 kts | 320° |
| 2026-04-29 00:03 | -12.49214 | -50.91388 | 37951 ft | 448 kts | 320° |
| 2026-04-29 00:04 | -12.44484 | -50.95546 | 37943 ft | 448 kts | 320° |
| 2026-04-29 00:04 | -12.39753 | -50.99702 | 37946 ft | 448 kts | 320° |
| 2026-04-29 00:05 | -12.35022 | -51.03857 | 37941 ft | 447 kts | 320° |
| 2026-04-29 00:05 | -12.30333 | -51.07973 | 37942 ft | 446 kts | 320° |
| 2026-04-29 00:06 | -12.25629 | -51.12100 | 37940 ft | 445 kts | 320° |
| 2026-04-29 00:06 | -12.20932 | -51.16219 | 37950 ft | 444 kts | 320° |
| 2026-04-29 00:07 | -12.16246 | -51.20326 | 37944 ft | 443 kts | 320° |
| 2026-04-29 00:07 | -12.11575 | -51.24419 | 37935 ft | 442 kts | 320° |
| 2026-04-29 00:08 | -12.06910 | -51.28507 | 37942 ft | 442 kts | 319° |
| 2026-04-29 00:08 | -12.02241 | -51.32596 | 37954 ft | 442 kts | 319° |
| 2026-04-29 00:09 | -11.97574 | -51.36683 | 37952 ft | 442 kts | 319° |
| 2026-04-29 00:09 | -11.92888 | -51.40783 | 37952 ft | 443 kts | 320° |
| 2026-04-29 00:10 | -11.88229 | -51.44858 | 37949 ft | 444 kts | 320° |
| 2026-04-29 00:10 | -11.83533 | -51.48963 | 37951 ft | 445 kts | 320° |
| 2026-04-29 00:11 | -11.78820 | -51.53081 | 37951 ft | 446 kts | 320° |
| 2026-04-29 00:12 | -11.71737 | -51.59267 | 37953 ft | 447 kts | 320° |
| 2026-04-29 00:12 | -11.67011 | -51.63392 | 37956 ft | 447 kts | 320° |
| 2026-04-29 00:13 | -11.62277 | -51.67522 | 37950 ft | 447 kts | 320° |
| 2026-04-29 00:13 | -11.57543 | -51.71650 | 37948 ft | 447 kts | 320° |
| 2026-04-29 00:14 | -11.52843 | -51.75747 | 37945 ft | 447 kts | 320° |
| 2026-04-29 00:14 | -11.48111 | -51.79869 | 37943 ft | 446 kts | 320° |
| 2026-04-29 00:15 | -11.43394 | -51.83977 | 37943 ft | 446 kts | 320° |
| 2026-04-29 00:15 | -11.38678 | -51.88083 | 37949 ft | 445 kts | 320° |
| 2026-04-29 00:16 | -11.33972 | -51.92178 | 37945 ft | 445 kts | 320° |
| 2026-04-29 00:16 | -11.30058 | -51.95583 | 37951 ft | 445 kts | 320° |
| 2026-04-29 00:17 | -11.24565 | -52.00313 | 37954 ft | 444 kts | 321° |
| 2026-04-29 00:17 | -11.19801 | -52.04340 | 37940 ft | 445 kts | 321° |
| 2026-04-29 00:18 | -11.15838 | -52.07687 | 37951 ft | 445 kts | 321° |
| 2026-04-29 00:18 | -11.11078 | -52.11715 | 37944 ft | 445 kts | 321° |
| 2026-04-29 00:19 | -11.06313 | -52.15751 | 37943 ft | 445 kts | 321° |
| 2026-04-29 00:19 | -11.01545 | -52.19790 | 37951 ft | 446 kts | 321° |
| 2026-04-29 00:20 | -10.96773 | -52.23830 | 37953 ft | 446 kts | 321° |
| 2026-04-29 00:20 | -10.91997 | -52.27872 | 37951 ft | 446 kts | 321° |
| 2026-04-29 00:21 | -10.87221 | -52.31912 | 37961 ft | 447 kts | 321° |
| 2026-04-29 00:21 | -10.82466 | -52.35932 | 37957 ft | 447 kts | 321° |
| 2026-04-29 00:22 | -10.77670 | -52.39985 | 37951 ft | 448 kts | 321° |
| 2026-04-29 00:22 | -10.72878 | -52.44033 | 37957 ft | 448 kts | 321° |
| 2026-04-29 00:23 | -10.68081 | -52.48084 | 37960 ft | 449 kts | 321° |
| 2026-04-29 00:23 | -10.63273 | -52.52142 | 37948 ft | 449 kts | 321° |
| 2026-04-29 00:24 | -10.58465 | -52.56199 | 37954 ft | 449 kts | 321° |
| 2026-04-29 00:24 | -10.53652 | -52.60258 | 37951 ft | 450 kts | 321° |
| 2026-04-29 00:25 | -10.48830 | -52.64323 | 37953 ft | 450 kts | 321° |
| 2026-04-29 00:25 | -10.44003 | -52.68390 | 37950 ft | 450 kts | 321° |
| 2026-04-29 00:26 | -10.39205 | -52.72431 | 37955 ft | 451 kts | 321° |
| 2026-04-29 00:26 | -10.34372 | -52.76501 | 37949 ft | 451 kts | 321° |
| 2026-04-29 00:27 | -10.29534 | -52.80572 | 37949 ft | 451 kts | 321° |
| 2026-04-29 00:27 | -10.24697 | -52.84641 | 37949 ft | 452 kts | 321° |
| 2026-04-29 00:28 | -10.19856 | -52.88712 | 37951 ft | 452 kts | 321° |
| 2026-04-29 00:28 | -10.15005 | -52.92790 | 37953 ft | 453 kts | 321° |
| 2026-04-29 00:29 | -10.10153 | -52.96867 | 37950 ft | 453 kts | 321° |
| 2026-04-29 00:29 | -10.05291 | -53.00951 | 37953 ft | 454 kts | 321° |
| 2026-04-29 00:30 | -10.00429 | -53.05034 | 37955 ft | 454 kts | 321° |
| 2026-04-29 00:30 | -9.95593 | -53.09093 | 37952 ft | 454 kts | 321° |
| 2026-04-29 00:31 | -9.90723 | -53.13181 | 37955 ft | 455 kts | 320° |
| 2026-04-29 00:31 | -9.86002 | -53.17462 | 37952 ft | 455 kts | 318° |
| 2026-04-29 00:32 | -9.81372 | -53.21847 | 37954 ft | 455 kts | 318° |
| 2026-04-29 00:32 | -9.76740 | -53.26205 | 37958 ft | 455 kts | 318° |
| 2026-04-29 00:33 | -9.72082 | -53.30551 | 37956 ft | 454 kts | 318° |
| 2026-04-29 00:33 | -9.67428 | -53.34882 | 37954 ft | 454 kts | 318° |
| 2026-04-29 00:34 | -9.62774 | -53.39213 | 37956 ft | 454 kts | 318° |
| 2026-04-29 00:34 | -9.58125 | -53.43540 | 37953 ft | 453 kts | 318° |
| 2026-04-29 00:35 | -9.53479 | -53.47860 | 37953 ft | 453 kts | 318° |
| 2026-04-29 00:35 | -9.48837 | -53.52164 | 37954 ft | 452 kts | 319° |
| 2026-04-29 00:36 | -9.44223 | -53.56437 | 37951 ft | 452 kts | 319° |
| 2026-04-29 00:36 | -9.39586 | -53.60731 | 37952 ft | 452 kts | 319° |
| 2026-04-29 00:37 | -9.34946 | -53.65029 | 37953 ft | 452 kts | 318° |
| 2026-04-29 00:37 | -9.30311 | -53.69321 | 37952 ft | 452 kts | 318° |
| 2026-04-29 00:38 | -9.25674 | -53.73613 | 37960 ft | 452 kts | 318° |
| 2026-04-29 00:38 | -9.21035 | -53.77905 | 37956 ft | 452 kts | 318° |
| 2026-04-29 00:39 | -9.16381 | -53.82209 | 37960 ft | 452 kts | 318° |
| 2026-04-29 00:39 | -9.11728 | -53.86510 | 37954 ft | 453 kts | 318° |
| 2026-04-29 00:40 | -9.07071 | -53.90814 | 37959 ft | 453 kts | 318° |
| 2026-04-29 00:40 | -9.02415 | -53.95116 | 37958 ft | 454 kts | 318° |
| 2026-04-29 00:41 | -8.97784 | -53.99392 | 37960 ft | 454 kts | 318° |
| 2026-04-29 00:41 | -8.93118 | -54.03700 | 37958 ft | 454 kts | 318° |
| 2026-04-29 00:42 | -8.88444 | -54.08014 | 37959 ft | 455 kts | 318° |
| 2026-04-29 00:42 | -8.83767 | -54.12328 | 37965 ft | 455 kts | 318° |
| 2026-04-29 00:43 | -8.79093 | -54.16638 | 37958 ft | 455 kts | 318° |
| 2026-04-29 00:43 | -8.74419 | -54.20947 | 37961 ft | 455 kts | 318° |
| 2026-04-29 00:44 | -8.69740 | -54.25259 | 37959 ft | 455 kts | 318° |
| 2026-04-29 00:44 | -8.65067 | -54.29564 | 37958 ft | 455 kts | 318° |
| 2026-04-29 00:45 | -8.60395 | -54.33865 | 37959 ft | 454 kts | 318° |
| 2026-04-29 00:45 | -8.55715 | -54.38174 | 37964 ft | 454 kts | 318° |
| 2026-04-29 00:46 | -8.51080 | -54.42439 | 37959 ft | 454 kts | 318° |
| 2026-04-29 00:46 | -8.46415 | -54.46730 | 37958 ft | 453 kts | 318° |
| 2026-04-29 00:47 | -8.41753 | -54.51018 | 37961 ft | 453 kts | 318° |
| 2026-04-29 00:47 | -8.37092 | -54.55302 | 37963 ft | 453 kts | 318° |
| 2026-04-29 00:48 | -8.32428 | -54.59588 | 37959 ft | 453 kts | 318° |
| 2026-04-29 00:48 | -8.27765 | -54.63873 | 37959 ft | 453 kts | 318° |
| 2026-04-29 00:49 | -8.23106 | -54.68151 | 37966 ft | 453 kts | 318° |
| 2026-04-29 00:49 | -8.18448 | -54.72427 | 37956 ft | 453 kts | 318° |
| 2026-04-29 00:50 | -8.13784 | -54.76708 | 37955 ft | 453 kts | 318° |
| 2026-04-29 00:50 | -8.09119 | -54.80987 | 37955 ft | 453 kts | 318° |
| 2026-04-29 00:51 | -8.04458 | -54.85262 | 37958 ft | 453 kts | 318° |
| 2026-04-29 00:51 | -7.99796 | -54.89536 | 37960 ft | 453 kts | 318° |
| 2026-04-29 00:52 | -7.95159 | -54.93787 | 37954 ft | 453 kts | 318° |
| 2026-04-29 00:52 | -7.90495 | -54.98060 | 37951 ft | 453 kts | 318° |
| 2026-04-29 00:53 | -7.85825 | -55.02338 | 37956 ft | 453 kts | 318° |
| 2026-04-29 00:53 | -7.81161 | -55.06609 | 37949 ft | 453 kts | 318° |
| 2026-04-29 00:54 | -7.76492 | -55.10883 | 37945 ft | 453 kts | 318° |
| 2026-04-29 00:54 | -7.71828 | -55.15151 | 37949 ft | 453 kts | 318° |
| 2026-04-29 00:55 | -7.67160 | -55.19421 | 37952 ft | 453 kts | 318° |
| 2026-04-29 00:55 | -7.62498 | -55.23685 | 37951 ft | 453 kts | 318° |
| 2026-04-29 00:56 | -7.57830 | -55.27953 | 37952 ft | 453 kts | 318° |
| 2026-04-29 00:56 | -7.53163 | -55.32220 | 37951 ft | 453 kts | 318° |
| 2026-04-29 00:57 | -7.48500 | -55.36481 | 37953 ft | 453 kts | 318° |
| 2026-04-29 00:57 | -7.43858 | -55.40723 | 37951 ft | 453 kts | 318° |
| 2026-04-29 00:58 | -7.39195 | -55.44984 | 37952 ft | 453 kts | 317° |
| 2026-04-29 00:58 | -7.34534 | -55.49267 | 37953 ft | 453 kts | 317° |
| 2026-04-29 00:59 | -7.29885 | -55.53543 | 37952 ft | 453 kts | 317° |
| 2026-04-29 00:59 | -7.25189 | -55.57766 | 37943 ft | 453 kts | 319° |
| 2026-04-29 01:00 | -7.20414 | -55.61854 | 37954 ft | 453 kts | 320° |
| 2026-04-29 01:00 | -7.15726 | -55.65851 | 37950 ft | 453 kts | 320° |
| 2026-04-29 01:01 | -7.10959 | -55.69939 | 37950 ft | 453 kts | 319° |
| 2026-04-29 01:01 | -7.06165 | -55.74066 | 37950 ft | 453 kts | 319° |
| 2026-04-29 01:02 | -7.01382 | -55.78186 | 37942 ft | 452 kts | 319° |
| 2026-04-29 01:02 | -6.96593 | -55.82309 | 37950 ft | 452 kts | 319° |
| 2026-04-29 01:03 | -6.91811 | -55.86425 | 37946 ft | 452 kts | 319° |
| 2026-04-29 01:03 | -6.87066 | -55.90508 | 37942 ft | 452 kts | 320° |
| 2026-04-29 01:04 | -6.82288 | -55.94617 | 37948 ft | 452 kts | 320° |
| 2026-04-29 01:04 | -6.77506 | -55.98729 | 37950 ft | 452 kts | 320° |
| 2026-04-29 01:05 | -6.73543 | -56.02136 | 37944 ft | 451 kts | 320° |
| 2026-04-29 01:05 | -6.68765 | -56.06243 | 37954 ft | 451 kts | 320° |
| 2026-04-29 01:06 | -6.63992 | -56.10345 | 37958 ft | 451 kts | 320° |
| 2026-04-29 01:06 | -6.59218 | -56.14446 | 37947 ft | 451 kts | 320° |
| 2026-04-29 01:07 | -6.54438 | -56.18550 | 37947 ft | 451 kts | 320° |
| 2026-04-29 01:07 | -6.49664 | -56.22650 | 37951 ft | 451 kts | 320° |
| 2026-04-29 01:08 | -6.44883 | -56.26754 | 37963 ft | 451 kts | 320° |
| 2026-04-29 01:08 | -6.40101 | -56.30857 | 37952 ft | 452 kts | 320° |
| 2026-04-29 01:09 | -6.35319 | -56.34960 | 37948 ft | 451 kts | 320° |
| 2026-04-29 01:09 | -6.30574 | -56.39029 | 37943 ft | 451 kts | 320° |
| 2026-04-29 01:10 | -6.25792 | -56.43130 | 37943 ft | 451 kts | 320° |
| 2026-04-29 01:10 | -6.21010 | -56.47230 | 37947 ft | 451 kts | 320° |
| 2026-04-29 01:11 | -6.16227 | -56.51329 | 37946 ft | 451 kts | 320° |
| 2026-04-29 01:11 | -6.11444 | -56.55428 | 37943 ft | 452 kts | 320° |
| 2026-04-29 01:12 | -6.06664 | -56.59522 | 37954 ft | 452 kts | 320° |
| 2026-04-29 01:12 | -6.01884 | -56.63617 | 37946 ft | 452 kts | 320° |
| 2026-04-29 01:13 | -5.97102 | -56.67711 | 37936 ft | 452 kts | 320° |
| 2026-04-29 01:13 | -5.92319 | -56.71807 | 37951 ft | 452 kts | 320° |
| 2026-04-29 01:14 | -5.87561 | -56.75879 | 37941 ft | 452 kts | 320° |
| 2026-04-29 01:14 | -5.82772 | -56.79978 | 37935 ft | 452 kts | 320° |
| 2026-04-29 01:15 | -5.77981 | -56.84077 | 37941 ft | 452 kts | 320° |
| 2026-04-29 01:15 | -5.73738 | -56.88721 | 37947 ft | 453 kts | 303° |
| 2026-04-29 01:16 | -5.70705 | -56.94255 | 37942 ft | 453 kts | 298° |
| 2026-04-29 01:16 | -5.67804 | -56.99879 | 37940 ft | 453 kts | 297° |
| 2026-04-29 01:17 | -5.64879 | -57.05489 | 37939 ft | 454 kts | 298° |
| 2026-04-29 01:17 | -5.61921 | -57.11093 | 37928 ft | 454 kts | 298° |
| 2026-04-29 01:18 | -5.58953 | -57.16689 | 37935 ft | 454 kts | 298° |
| 2026-04-29 01:18 | -5.54515 | -57.25047 | 37941 ft | 454 kts | 298° |
| 2026-04-29 01:19 | -5.51543 | -57.30646 | 37931 ft | 455 kts | 298° |
| 2026-04-29 01:19 | -5.48567 | -57.36250 | 37931 ft | 454 kts | 298° |
| 2026-04-29 01:20 | -5.45592 | -57.41852 | 37942 ft | 454 kts | 298° |
| 2026-04-29 01:20 | -5.42617 | -57.47451 | 37942 ft | 454 kts | 298° |
| 2026-04-29 01:21 | -5.39647 | -57.53040 | 37939 ft | 454 kts | 298° |
| 2026-04-29 01:21 | -5.36675 | -57.58632 | 37930 ft | 454 kts | 298° |
| 2026-04-29 01:22 | -5.33707 | -57.64214 | 37939 ft | 453 kts | 298° |
| 2026-04-29 01:22 | -5.30740 | -57.69793 | 37940 ft | 453 kts | 298° |
| 2026-04-29 01:23 | -5.27774 | -57.75369 | 37931 ft | 453 kts | 298° |
| 2026-04-29 01:23 | -5.24826 | -57.80910 | 37938 ft | 453 kts | 298° |
| 2026-04-29 01:24 | -5.21862 | -57.86479 | 37936 ft | 452 kts | 298° |
| 2026-04-29 01:24 | -5.18922 | -57.92002 | 37935 ft | 452 kts | 298° |
| 2026-04-29 01:25 | -5.16021 | -57.97449 | 37938 ft | 452 kts | 298° |
| 2026-04-29 01:25 | -5.13079 | -58.02967 | 37930 ft | 452 kts | 298° |
| 2026-04-29 01:26 | -5.10090 | -58.08571 | 37940 ft | 452 kts | 298° |
| 2026-04-29 01:26 | -5.07127 | -58.14126 | 37932 ft | 451 kts | 298° |
| 2026-04-29 01:27 | -5.04165 | -58.19679 | 37936 ft | 451 kts | 298° |
| 2026-04-29 01:27 | -5.01204 | -58.25230 | 37938 ft | 451 kts | 298° |
| 2026-04-29 01:28 | -4.98243 | -58.30781 | 37938 ft | 451 kts | 298° |
| 2026-04-29 01:28 | -4.95279 | -58.36335 | 37932 ft | 452 kts | 299° |
| 2026-04-29 01:29 | -4.92312 | -58.41894 | 37938 ft | 452 kts | 299° |
| 2026-04-29 01:29 | -4.89359 | -58.47424 | 37939 ft | 453 kts | 299° |
| 2026-04-29 01:30 | -4.86378 | -58.53006 | 37935 ft | 454 kts | 299° |
| 2026-04-29 01:30 | -4.83394 | -58.58592 | 37941 ft | 455 kts | 299° |
| 2026-04-29 01:31 | -4.80404 | -58.64187 | 37936 ft | 455 kts | 299° |
| 2026-04-29 01:31 | -4.77407 | -58.69795 | 37939 ft | 456 kts | 299° |
| 2026-04-29 01:32 | -4.74411 | -58.75399 | 37887 ft | 457 kts | 299° |
| 2026-04-29 01:32 | -4.72893 | -58.78237 | 37358 ft | 463 kts | 299° |
| 2026-04-29 01:32 | -4.71377 | -58.81072 | 36833 ft | 461 kts | 299° |
| 2026-04-29 01:33 | -4.69870 | -58.83892 | 36470 ft | 455 kts | 299° |
| 2026-04-29 01:33 | -4.68382 | -58.86675 | 36051 ft | 452 kts | 298° |
| 2026-04-29 01:33 | -4.66903 | -58.89440 | 35650 ft | 448 kts | 298° |
| 2026-04-29 01:33 | -4.65434 | -58.92185 | 35239 ft | 445 kts | 298° |
| 2026-04-29 01:34 | -4.63979 | -58.94905 | 34834 ft | 442 kts | 298° |
| 2026-04-29 01:34 | -4.62533 | -58.97607 | 34430 ft | 439 kts | 298° |
| 2026-04-29 01:34 | -4.61093 | -59.00298 | 34002 ft | 437 kts | 298° |
| 2026-04-29 01:34 | -4.59658 | -59.02978 | 33562 ft | 435 kts | 298° |
| 2026-04-29 01:35 | -4.58235 | -59.05637 | 33137 ft | 432 kts | 298° |
| 2026-04-29 01:35 | -4.56821 | -59.08280 | 32736 ft | 429 kts | 298° |
| 2026-04-29 01:35 | -4.55433 | -59.10872 | 32330 ft | 426 kts | 298° |
| 2026-04-29 01:35 | -4.54040 | -59.13474 | 31930 ft | 423 kts | 298° |
| 2026-04-29 01:36 | -4.52651 | -59.16067 | 31548 ft | 421 kts | 298° |
| 2026-04-29 01:36 | -4.51270 | -59.18645 | 31161 ft | 418 kts | 298° |
| 2026-04-29 01:36 | -4.49900 | -59.21204 | 30781 ft | 416 kts | 298° |
| 2026-04-29 01:36 | -4.48532 | -59.23758 | 30395 ft | 414 kts | 298° |
| 2026-04-29 01:37 | -4.47173 | -59.26294 | 30004 ft | 413 kts | 298° |
| 2026-04-29 01:37 | -4.45820 | -59.28819 | 29572 ft | 411 kts | 298° |
| 2026-04-29 01:37 | -4.44471 | -59.31337 | 29145 ft | 408 kts | 299° |
| 2026-04-29 01:37 | -4.43136 | -59.33828 | 28743 ft | 405 kts | 299° |
| 2026-04-29 01:38 | -4.41806 | -59.36311 | 28338 ft | 402 kts | 299° |
| 2026-04-29 01:38 | -4.40485 | -59.38775 | 27944 ft | 399 kts | 299° |
| 2026-04-29 01:38 | -4.39177 | -59.41215 | 27562 ft | 397 kts | 299° |
| 2026-04-29 01:38 | -4.37877 | -59.43640 | 27177 ft | 394 kts | 299° |
| 2026-04-29 01:39 | -4.36581 | -59.46058 | 26793 ft | 392 kts | 299° |
| 2026-04-29 01:39 | -4.35295 | -59.48455 | 26421 ft | 390 kts | 299° |
| 2026-04-29 01:39 | -4.34029 | -59.50817 | 26048 ft | 388 kts | 299° |
| 2026-04-29 01:39 | -4.32755 | -59.53192 | 25681 ft | 387 kts | 299° |
| 2026-04-29 01:40 | -4.31482 | -59.55566 | 25300 ft | 386 kts | 299° |
| 2026-04-29 01:40 | -4.30211 | -59.57935 | 24922 ft | 385 kts | 299° |
| 2026-04-29 01:40 | -4.28947 | -59.60291 | 24532 ft | 384 kts | 299° |
| 2026-04-29 01:40 | -4.27685 | -59.62644 | 24151 ft | 384 kts | 300° |
| 2026-04-29 01:41 | -4.26420 | -59.65001 | 23771 ft | 383 kts | 300° |
| 2026-04-29 01:41 | -4.25156 | -59.67357 | 23363 ft | 383 kts | 300° |
| 2026-04-29 01:41 | -4.23898 | -59.69701 | 22944 ft | 382 kts | 300° |
| 2026-04-29 01:41 | -4.22647 | -59.72032 | 22557 ft | 379 kts | 300° |
| 2026-04-29 01:42 | -4.21399 | -59.74359 | 22177 ft | 377 kts | 300° |
| 2026-04-29 01:42 | -4.20160 | -59.76668 | 21807 ft | 375 kts | 299° |
| 2026-04-29 01:42 | -4.18930 | -59.78958 | 21441 ft | 373 kts | 299° |
| 2026-04-29 01:42 | -4.17705 | -59.81241 | 21071 ft | 371 kts | 299° |
| 2026-04-29 01:43 | -4.16489 | -59.83507 | 20706 ft | 369 kts | 299° |
| 2026-04-29 01:43 | -4.15273 | -59.85771 | 20350 ft | 367 kts | 299° |
| 2026-04-29 01:43 | -4.14069 | -59.88014 | 19984 ft | 365 kts | 299° |
| 2026-04-29 01:43 | -4.12868 | -59.90250 | 19618 ft | 364 kts | 299° |
| 2026-04-29 01:44 | -4.11685 | -59.92452 | 19254 ft | 363 kts | 299° |
| 2026-04-29 01:44 | -4.10287 | -59.94531 | 18858 ft | 360 kts | 317° |
| 2026-04-29 01:44 | -4.08295 | -59.95998 | 18514 ft | 354 kts | 336° |
| 2026-04-29 01:44 | -4.05997 | -59.96834 | 18164 ft | 350 kts | 344° |
| 2026-04-29 01:45 | -4.03659 | -59.97533 | 17738 ft | 350 kts | 346° |
| 2026-04-29 01:45 | -4.01327 | -59.98199 | 17362 ft | 347 kts | 346° |
| 2026-04-29 01:45 | -3.99011 | -59.98861 | 16999 ft | 345 kts | 346° |
| 2026-04-29 01:45 | -3.96713 | -59.99525 | 16640 ft | 343 kts | 345° |
| 2026-04-29 01:46 | -3.94429 | -60.00194 | 16286 ft | 341 kts | 345° |
| 2026-04-29 01:46 | -3.92158 | -60.00866 | 15934 ft | 339 kts | 345° |
| 2026-04-29 01:46 | -3.89906 | -60.01535 | 15585 ft | 337 kts | 345° |
| 2026-04-29 01:46 | -3.87661 | -60.02205 | 15234 ft | 335 kts | 345° |
| 2026-04-29 01:47 | -3.85432 | -60.02871 | 14887 ft | 334 kts | 345° |
| 2026-04-29 01:47 | -3.83206 | -60.03537 | 14531 ft | 333 kts | 345° |
| 2026-04-29 01:47 | -3.80990 | -60.04201 | 14173 ft | 332 kts | 345° |
| 2026-04-29 01:47 | -3.78780 | -60.04862 | 13816 ft | 331 kts | 345° |
| 2026-04-29 01:48 | -3.76573 | -60.05523 | 13439 ft | 330 kts | 345° |
| 2026-04-29 01:48 | -3.74377 | -60.06180 | 13077 ft | 328 kts | 345° |
| 2026-04-29 01:48 | -3.72199 | -60.06832 | 12721 ft | 326 kts | 345° |
| 2026-04-29 01:48 | -3.70035 | -60.07480 | 12377 ft | 324 kts | 345° |
| 2026-04-29 01:49 | -3.67881 | -60.08125 | 12035 ft | 322 kts | 345° |
| 2026-04-29 01:49 | -3.65745 | -60.08764 | 11690 ft | 320 kts | 345° |
| 2026-04-29 01:49 | -3.63617 | -60.09401 | 11352 ft | 318 kts | 345° |
| 2026-04-29 01:49 | -3.61507 | -60.10033 | 11016 ft | 316 kts | 345° |
| 2026-04-29 01:50 | -3.59402 | -60.10663 | 10686 ft | 315 kts | 345° |
| 2026-04-29 01:50 | -3.57313 | -60.11288 | 10353 ft | 313 kts | 345° |
| 2026-04-29 01:50 | -3.55236 | -60.11909 | 10148 ft | 307 kts | 345° |
| 2026-04-29 01:50 | -3.53213 | -60.12515 | 9975 ft | 300 kts | 345° |
| 2026-04-29 01:51 | -3.51234 | -60.13107 | 9882 ft | 290 kts | 345° |
| 2026-04-29 01:51 | -3.49322 | -60.13679 | 9415 ft | 290 kts | 345° |
| 2026-04-29 01:51 | -3.47407 | -60.14251 | 9091 ft | 287 kts | 345° |
| 2026-04-29 01:51 | -3.45502 | -60.14821 | 8786 ft | 285 kts | 345° |
| 2026-04-29 01:52 | -3.43600 | -60.15389 | 8483 ft | 284 kts | 345° |
| 2026-04-29 01:52 | -3.41712 | -60.15954 | 8187 ft | 283 kts | 345° |
| 2026-04-29 01:52 | -3.39829 | -60.16517 | 7895 ft | 282 kts | 345° |
| 2026-04-29 01:52 | -3.37951 | -60.17078 | 7606 ft | 281 kts | 345° |
| 2026-04-29 01:53 | -3.36080 | -60.17637 | 7312 ft | 280 kts | 345° |
| 2026-04-29 01:53 | -3.34215 | -60.18195 | 7026 ft | 279 kts | 345° |
| 2026-04-29 01:53 | -3.32360 | -60.18750 | 6727 ft | 278 kts | 345° |
| 2026-04-29 01:53 | -3.30505 | -60.19305 | 6440 ft | 278 kts | 345° |
| 2026-04-29 01:54 | -3.29282 | -60.19670 | 6230 ft | 277 kts | 345° |
| 2026-04-29 01:54 | -3.26838 | -60.20401 | 5832 ft | 276 kts | 345° |
| 2026-04-29 01:54 | -3.24999 | -60.20951 | 5530 ft | 275 kts | 345° |
| 2026-04-29 01:54 | -3.23747 | -60.21273 | 5332 ft | 274 kts | 350° |
| 2026-04-29 01:55 | -3.21877 | -60.21592 | 5048 ft | 272 kts | 353° |
| 2026-04-29 01:55 | -3.20008 | -60.21875 | 4764 ft | 271 kts | 353° |
| 2026-04-29 01:55 | -3.18154 | -60.22167 | 4474 ft | 269 kts | 352° |
| 2026-04-29 01:55 | -3.16321 | -60.22465 | 4218 ft | 263 kts | 352° |
| 2026-04-29 01:56 | -3.14573 | -60.22754 | 4063 ft | 250 kts | 352° |
| 2026-04-29 01:56 | -3.12894 | -60.22935 | 3938 ft | 235 kts | 0° |
| 2026-04-29 01:56 | -3.11307 | -60.22923 | 3838 ft | 220 kts | 2° |
| 2026-04-29 01:56 | -3.09835 | -60.22898 | 3778 ft | 205 kts | 2° |
| 2026-04-29 01:57 | -3.08424 | -60.22881 | 3692 ft | 203 kts | 2° |
| 2026-04-29 01:57 | -3.07012 | -60.22870 | 3609 ft | 201 kts | 2° |
| 2026-04-29 01:57 | -3.05630 | -60.22782 | 3402 ft | 197 kts | 19° |
| 2026-04-29 01:57 | -3.04621 | -60.21959 | 3181 ft | 185 kts | 66° |
| 2026-04-29 01:58 | -3.04272 | -60.20761 | 2976 ft | 177 kts | 75° |
| 2026-04-29 01:58 | -3.04030 | -60.19592 | 2765 ft | 169 kts | 83° |
| 2026-04-29 01:58 | -3.03902 | -60.18469 | 2587 ft | 156 kts | 84° |
| 2026-04-29 01:58 | -3.03848 | -60.17389 | 2366 ft | 153 kts | 88° |
| 2026-04-29 01:59 | -3.03838 | -60.16330 | 2172 ft | 152 kts | 89° |
| 2026-04-29 01:59 | -3.03837 | -60.15274 | 1975 ft | 151 kts | 89° |
| 2026-04-29 01:59 | -3.03839 | -60.14220 | 1784 ft | 151 kts | 89° |
| 2026-04-29 01:59 | -3.03842 | -60.13172 | 1590 ft | 150 kts | 89° |
| 2026-04-29 02:00 | -3.03844 | -60.12127 | 1387 ft | 151 kts | 89° |
| 2026-04-29 02:00 | -3.03846 | -60.11083 | 1196 ft | 150 kts | 90° |
| 2026-04-29 02:00 | -3.03848 | -60.10051 | 1022 ft | 150 kts | 90° |
| 2026-04-29 02:00 | -3.03850 | -60.08993 | 824 ft | 152 kts | 89° |
| 2026-04-29 02:01 | -3.03852 | -60.07937 | 648 ft | 152 kts | 89° |
| 2026-04-29 02:01 | -3.03851 | -60.06875 | 460 ft | 153 kts | 89° |
| 2026-04-29 02:01 | -3.03854 | -60.05827 | 280 ft | 146 kts | 89° |
| 2026-04-29 02:01 | -3.03859 | -60.04924 | 269 ft | 105 kts | 90° |
| 2026-04-29 02:02 | -3.03861 | -60.04295 | 270 ft | 82 kts | 90° |
| 2026-04-29 02:02 | -3.03862 | -60.03969 | 269 ft | 30 kts | 90° |
| 2026-04-29 02:02 | -3.03859 | -60.03817 | 269 ft | 17 kts | 74° |
| 2026-04-29 02:02 | -3.03763 | -60.03772 | 269 ft | 17 kts | 348° |
| 2026-04-29 02:03 | -3.03682 | -60.03847 | 269 ft | 16 kts | 292° |
| 2026-04-29 02:03 | -3.03653 | -60.03951 | 269 ft | 15 kts | 285° |
| 2026-04-29 02:03 | -3.03627 | -60.04053 | 269 ft | 15 kts | 285° |
| 2026-04-29 02:03 | -3.03600 | -60.04150 | 269 ft | 14 kts | 285° |
| 2026-04-29 02:04 | -3.03567 | -60.04239 | 269 ft | 14 kts | 302° |
| 2026-04-29 02:04 | -3.03510 | -60.04311 | 269 ft | 13 kts | 316° |
| 2026-04-29 02:04 | -3.03435 | -60.04359 | 269 ft | 13 kts | 334° |
| 2026-04-29 02:04 | -3.03353 | -60.04387 | 269 ft | 12 kts | 332° |
| 2026-04-29 02:05 | -3.03339 | -60.04461 | 269 ft | 10 kts | 259° |
| 2026-04-29 02:05 | -3.03293 | -60.04493 | 269 ft | 9 kts | 350° |
| 2026-04-29 02:05 | -3.03262 | -60.04498 | 269 ft | 0 kts | 351° |